OPMET data     Updated:  17.07.2024 18:39:39 UTC     Background: 
    help
LKCV
LKKB
LKNA
LKLN
LKCS
LKPD
LKKV
LKMT
LKPR
LKTB
EDDB
EDDC
EDDF
EDDM
EDDN
EDDP
EPKK
EPKT
EPPO
EPWA
EPWR
LOWL
LOWS
LOWW
LZIB
LZPP
LZZI
LZSL
EDDE
EDQM
EPGD
EPLL
EPRZ
LOWI
LZKZ
LZPP
LHSM
LKBC
LZMC
LKPJ
EPBY
LHBP
LZTT
LKKU
LKVO
EDDT
METAR EDAC 171820Z 28004KT CAVOK 22/13 Q1021=
METAR EDDB 171820Z AUTO 29010KT CAVOK 21/13 Q1020 NOSIG=
METAR EDDC 171820Z AUTO 32004KT 270V360 CAVOK 23/12 Q1021 NOSIG=
METAR EDDE 171820Z AUTO 32008KT 280V340 9999 BKN042 22/13 Q1022 NOSIG=
METAR EDDF 171820Z AUTO 35003KT 310V060 CAVOK 25/14 Q1021 NOSIG=
METAR EDDM 171820Z AUTO 04001KT CAVOK 22/14 Q1023 NOSIG=
METAR EDDN 171820Z AUTO 31009KT CAVOK 23/12 Q1022 BECMG 02002KT=
METAR EDDP 171820Z AUTO 31011KT CAVOK 22/13 Q1021 NOSIG=
METAR EDQM 171820Z AUTO 33004KT 9999 // FEW048/// SCT084/// 20/13 Q1023=
METAR EPBY 171830Z 29008KT CAVOK 21/13 Q1019=
METAR EPGD 171830Z 25006KT CAVOK 20/13 Q1018=
METAR EPKK 171830Z 30004KT 270V350 9999 FEW043 BKN056 23/14 Q1020=
METAR EPKT 171830Z 01001KT 9999 -SHRA FEW008 SCT048CB 18/16 Q1021=
METAR EPLB 171830Z 35003KT CAVOK 25/20 Q1018=
METAR EPLL 171830Z 20003KT CAVOK 21/13 Q1020=
METAR EPMO 171830Z 23005KT CAVOK 23/14 Q1019=
METAR EPPO 171830Z 29008KT CAVOK 22/12 Q1020=
METAR EPRZ 171830Z VRB02KT 9999 FEW048CB 24/21 Q1018=
METAR EPWA 171830Z 24005KT CAVOK 23/13 Q1019 NOSIG=
METAR EPWR 171830Z 12003KT 090V170 CAVOK 23/15 Q1020=
METAR LHBP 171830Z 13011KT 9999 FEW040 SCT060 26/20 Q1016 NOSIG=
METAR LHPR 171815Z AUTO 32010KT CAVOK 26/16 Q1017=
METAR LHSM 171815Z AUTO 35013KT CAVOK 26/15 Q1017=
METAR LKBC 171830Z AUTO 00000KT 9999 FEW069 OVC079 19/16 Q1022=
METAR LKCR 171830Z AUTO 22001KT 9999 FEW085 BKN096 21/12 Q1021=
METAR LKCS 171830Z AUTO 18003KT CAVOK 20/16 Q1022=
METAR LKCV 171830Z 19003KT CAVOK 22/14 Q1021 NOSIG RMK BLU BLU=
METAR LKKB 171830Z 18009KT CAVOK 22/15 Q1021 NOSIG RMK BLU BLU=
METAR LKKU NIL
METAR LKKV 171830Z 26003KT 230V290 CAVOK 20/10 Q1022=
METAR LKLN 171830Z AUTO 24003KT 9999 FEW084 22/12 Q1022=
METAR LKMT 171830Z 04005KT CAVOK 20/15 Q1021 NOSIG=
METAR LKNA 171830Z 31006KT CAVOK 20/12 Q1022 RMK BLACK=
METAR LKPD 171830Z 32003KT CAVOK 22/15 Q1021 NOSIG RMK BLU BLU=
METAR LKPJ 171830Z AUTO 34006KT 9999 FEW082/// BKN096/// 22/15 Q1021=
METAR LKPR 171830Z 17006KT 130V190 CAVOK 21/15 Q1021 NOSIG=
METAR LKTB 171830Z 36005KT CAVOK 23/13 Q1021 NOSIG=
METAR LKTH 171830Z AUTO VRB02KT 9999 SCT072 BKN100 18/14 Q1022=
METAR LKVO NIL
METAR LOWG 171820Z AUTO 07007KT 040V100 9999 SCT060 26/16 Q1019 NOSIG=
METAR LOWI 171820Z AUTO VRB01KT 9999 FEW026 BKN034 19/16 Q1023 NOSIG=
METAR LOWK 171820Z 09006KT 060V130 9999 FEW050 27/18 Q1018 NOSIG=
METAR LOWL 171820Z AUTO 20003KT 180V290 9999 FEW040 SCT042 BKN046 21/17 Q1022 NOSIG=
METAR LOWS 171820Z AUTO 19003KT 130V220 9999 FEW034 BKN036 18/16 Q1023 NOSIG=
METAR LOWW 171820Z 34008KT 320V020 CAVOK 25/14 Q1020 NOSIG=
METAR LOXT 171750Z 32005KT 40KM FEW070SC SCT150AC 24/15 Q1020 RMK SCT=
METAR LOXZ 171750Z 08012KT 9999 -TSRA FEW003 SCT035CB OVC080 19/18 Q1021=
METAR LZIB 171830Z 32012KT CAVOK 26/14 Q1019 NOSIG=
METAR LZKZ 171830Z 01016KT CAVOK 26/18 Q1016 NOSIG=
METAR LZMC 171800Z 36010G20KT CAVOK 25/13 Q1020=
METAR LZPP 171830Z 35014KT CAVOK 24/16 Q1018=
METAR LZSL 171800Z 00000KT 9999 FEW005 21/20 Q1018=
METAR LZTT 171830Z 22003KT 9999 FEW023 21/18 Q1021 NOSIG=
METAR LZZI 171830Z 04008KT 9999 SCT042 22/15 Q1020=